Time;durP1;ratioP1;P1;durP2;ratioP2;P2;SDS_P1;SDS_P2;PMS_P1;PMS_P2;Temp;Humidity;BMP_temperature;BMP_pressure;BME280_temperature;BME280_humidity;BME280_pressure;Samples;Min_cycle;Max_cycle;Signal;HPM_P1;HPM_P2
2020/12/21 00:00:39;;;;;;;24.50;14.10;;;2.60;99.90;;;;;;5071920;28;20462;-49
2020/12/21 00:03:05;;;;;;;24.63;14.77;;;2.50;99.90;;;;;;5072200;28;20543;-49
2020/12/21 00:05:32;;;;;;;25.90;15.00;;;2.60;99.90;;;;;;5073060;28;20439;-50
2020/12/21 00:08:01;;;;;;;27.00;15.10;;;2.60;99.90;;;;;;5070024;28;20568;-50
2020/12/21 00:10:30;;;;;;;28.20;15.50;;;2.50;99.90;;;;;;5073017;28;20487;-50
2020/12/21 00:12:57;;;;;;;32.20;15.50;;;2.40;99.90;;;;;;5072193;28;20522;-50
2020/12/21 00:15:24;;;;;;;26.00;15.40;;;2.40;99.90;;;;;;5052899;28;20475;-50
2020/12/21 00:17:51;;;;;;;25.53;15.43;;;2.30;99.90;;;;;;5070747;28;20493;-50
2020/12/21 00:20:17;;;;;;;29.83;16.60;;;2.40;99.90;;;;;;5072801;28;20442;-51
2020/12/21 00:22:44;;;;;;;24.03;14.47;;;2.40;99.90;;;;;;5070317;28;20486;-50
2020/12/21 00:25:11;;;;;;;25.93;15.57;;;2.60;99.90;;;;;;5070367;28;20512;-49
2020/12/21 00:27:38;;;;;;;26.30;15.63;;;2.90;99.90;;;;;;5069635;28;20505;-50
2020/12/21 00:30:06;;;;;;;28.43;15.97;;;2.80;99.90;;;;;;5072837;28;20446;-50
2020/12/21 00:32:33;;;;;;;27.00;15.30;;;2.60;99.90;;;;;;5071602;28;20450;-50
2020/12/21 00:35:00;;;;;;;28.90;16.50;;;2.50;99.90;;;;;;5070826;28;20592;-50
2020/12/21 00:37:26;;;;;;;25.73;16.23;;;2.40;99.90;;;;;;5068826;28;20446;-50
2020/12/21 00:39:53;;;;;;;28.10;16.50;;;2.40;99.90;;;;;;5071008;28;20439;-50
2020/12/21 00:42:20;;;;;;;28.73;16.10;;;2.40;99.90;;;;;;5070899;28;21003;-50
2020/12/21 00:44:48;;;;;;;27.43;16.63;;;2.40;99.90;;;;;;5072239;28;20447;-51
2020/12/21 00:47:14;;;;;;;26.80;15.83;;;2.40;99.90;;;;;;5070302;28;20977;-50
2020/12/21 00:49:41;;;;;;;26.70;15.30;;;2.40;99.90;;;;;;5071880;28;20931;-50
2020/12/21 00:52:07;;;;;;;28.23;15.70;;;2.50;99.90;;;;;;5070999;28;20531;-51
2020/12/21 00:54:34;;;;;;;32.87;16.23;;;2.50;99.90;;;;;;5071540;28;20459;-51
2020/12/21 00:57:00;;;;;;;26.57;14.63;;;2.50;99.90;;;;;;5069548;28;20485;-50
2020/12/21 00:59:27;;;;;;;27.37;14.87;;;2.50;99.90;;;;;;5071347;28;20474;-51
2020/12/21 01:01:54;;;;;;;26.83;16.23;;;2.60;99.90;;;;;;5071211;28;20466;-50
2020/12/21 01:04:21;;;;;;;27.40;15.20;;;2.60;99.90;;;;;;5071489;28;20489;-50
2020/12/21 01:06:54;;;;;;;28.57;15.40;;;2.50;99.90;;;;;;5071025;28;20463;-51
2020/12/21 01:09:20;;;;;;;22.53;14.33;;;2.50;99.90;;;;;;5070637;28;20560;-50
2020/12/21 01:11:47;;;;;;;23.53;13.73;;;2.50;99.90;;;;;;5051744;28;20443;-51
2020/12/21 01:14:13;;;;;;;23.07;13.80;;;2.60;99.90;;;;;;5066838;28;20450;-50
2020/12/21 01:16:40;;;;;;;25.93;14.47;;;2.60;99.90;;;;;;5068145;28;21029;-51
2020/12/21 01:19:07;;;;;;;22.23;12.43;;;2.70;99.90;;;;;;5071145;28;20471;-51
2020/12/21 01:21:34;;;;;;;25.67;14.23;;;2.80;99.90;;;;;;5069882;28;20848;-50
2020/12/21 01:24:01;;;;;;;22.57;13.47;;;2.90;99.90;;;;;;5064809;28;20487;-51
2020/12/21 01:26:29;;;;;;;23.60;13.30;;;2.90;99.90;;;;;;5061378;28;20450;-51
2020/12/21 01:28:56;;;;;;;20.03;12.40;;;2.90;99.90;;;;;;5069719;28;20494;-51
2020/12/21 01:31:24;;;;;;;23.70;13.60;;;3.00;99.90;;;;;;5071658;28;20439;-50
2020/12/21 01:33:52;;;;;;;22.50;13.80;;;2.90;99.90;;;;;;5068912;28;20520;-50
2020/12/21 01:36:20;;;;;;;20.73;13.07;;;2.90;99.90;;;;;;5070762;28;20462;-50
2020/12/21 01:38:47;;;;;;;20.90;12.90;;;3.00;99.90;;;;;;5070289;28;20482;-50
2020/12/21 01:41:14;;;;;;;24.10;14.27;;;3.10;99.90;;;;;;5071162;28;20485;-50
2020/12/21 01:43:41;;;;;;;25.90;13.80;;;3.00;99.90;;;;;;5068904;28;20535;-50
2020/12/21 01:46:10;;;;;;;20.97;13.50;;;3.10;99.90;;;;;;5069474;28;20495;-50
2020/12/21 01:48:38;;;;;;;20.13;13.00;;;3.10;99.90;;;;;;5070672;28;20477;-50
2020/12/21 01:51:06;;;;;;;23.77;14.07;;;3.20;99.90;;;;;;5070393;28;20556;-51
2020/12/21 01:53:36;;;;;;;22.43;14.17;;;3.10;99.90;;;;;;5068059;28;20541;-50
2020/12/21 01:56:04;;;;;;;21.17;13.20;;;3.00;99.90;;;;;;5069359;28;20451;-50
2020/12/21 01:58:31;;;;;;;23.37;13.97;;;3.00;99.90;;;;;;5070777;28;20463;-50
2020/12/21 02:00:59;;;;;;;21.60;13.30;;;3.00;99.90;;;;;;5070750;28;20446;-50
2020/12/21 02:03:25;;;;;;;22.83;14.10;;;3.10;99.90;;;;;;5066695;28;20899;-50
2020/12/21 02:05:52;;;;;;;21.77;14.40;;;3.00;99.90;;;;;;5068129;28;20524;-51
2020/12/21 02:08:18;;;;;;;20.80;14.13;;;3.00;99.90;;;;;;5069345;28;20543;-50
2020/12/21 02:10:46;;;;;;;23.57;14.90;;;3.10;99.90;;;;;;5070561;28;20451;-51
2020/12/21 02:13:12;;;;;;;23.23;15.23;;;3.00;99.90;;;;;;5068484;28;20466;-51
2020/12/21 02:15:39;;;;;;;23.97;14.03;;;2.90;99.90;;;;;;5070833;28;20511;-50
2020/12/21 02:18:05;;;;;;;22.17;12.87;;;3.00;99.90;;;;;;5069544;28;20486;-51
2020/12/21 02:20:33;;;;;;;23.87;14.10;;;3.00;99.90;;;;;;5069902;28;20496;-51
2020/12/21 02:22:59;;;;;;;23.77;14.60;;;2.90;99.90;;;;;;5069855;28;20479;-51
2020/12/21 02:25:26;;;;;;;23.30;14.47;;;2.80;99.90;;;;;;5067628;28;20474;-51
2020/12/21 02:27:52;;;;;;;25.97;14.70;;;2.90;99.90;;;;;;5068748;28;20490;-49
2020/12/21 02:30:19;;;;;;;21.63;14.30;;;2.90;99.90;;;;;;5069851;28;20466;-51
2020/12/21 02:32:46;;;;;;;27.63;14.93;;;2.90;99.90;;;;;;5066917;28;20481;-50
2020/12/21 02:35:12;;;;;;;25.63;14.73;;;3.00;99.90;;;;;;5069997;28;20470;-50
2020/12/21 02:37:40;;;;;;;23.67;14.30;;;2.90;99.90;;;;;;5068828;28;20491;-50
2020/12/21 02:40:07;;;;;;;23.57;14.63;;;3.00;99.90;;;;;;5069770;28;20457;-50
2020/12/21 02:42:34;;;;;;;28.60;15.03;;;3.00;99.90;;;;;;5057368;28;20493;-50
2020/12/21 02:45:01;;;;;;;21.00;13.80;;;2.90;99.90;;;;;;5070153;28;20470;-51
2020/12/21 02:47:27;;;;;;;22.57;14.27;;;3.10;99.90;;;;;;5069384;28;20496;-51
2020/12/21 02:49:54;;;;;;;21.53;13.47;;;3.20;99.90;;;;;;5070003;28;20458;-53
2020/12/21 02:52:21;;;;;;;21.33;14.17;;;3.10;99.90;;;;;;5069055;28;20457;-52
2020/12/21 02:54:48;;;;;;;25.83;15.00;;;3.00;99.90;;;;;;5068279;28;20699;-52
2020/12/21 02:57:15;;;;;;;27.10;14.50;;;2.90;99.90;;;;;;5069572;28;20538;-52
2020/12/21 02:59:42;;;;;;;25.87;15.67;;;3.00;99.90;;;;;;5067787;28;20471;-52
2020/12/21 03:02:09;;;;;;;24.80;15.23;;;2.90;99.90;;;;;;5068892;28;20481;-51
2020/12/21 03:04:35;;;;;;;23.93;13.90;;;2.90;99.90;;;;;;5070056;28;20478;-51
2020/12/21 03:07:02;;;;;;;23.67;13.50;;;2.90;99.90;;;;;;5068755;28;20527;-52
2020/12/21 03:09:29;;;;;;;21.43;13.80;;;2.90;99.90;;;;;;5068687;28;20483;-52
2020/12/21 03:11:56;;;;;;;25.67;14.27;;;2.90;99.90;;;;;;5070201;28;20446;-51
2020/12/21 03:14:23;;;;;;;24.00;14.07;;;2.90;99.90;;;;;;5068660;28;20521;-51
2020/12/21 03:16:49;;;;;;;23.43;13.40;;;2.80;99.90;;;;;;5069738;28;20520;-51
2020/12/21 03:19:16;;;;;;;25.87;14.60;;;2.80;99.90;;;;;;5066420;28;20487;-51
2020/12/21 03:21:42;;;;;;;23.50;14.20;;;2.80;99.90;;;;;;5069864;28;20507;-52
2020/12/21 03:24:09;;;;;;;26.80;14.23;;;2.90;99.90;;;;;;5068867;28;20490;-51
2020/12/21 03:26:35;;;;;;;21.60;13.20;;;3.00;99.90;;;;;;5066611;28;21106;-52
2020/12/21 03:29:04;;;;;;;23.90;13.80;;;3.00;99.90;;;;;;5069285;28;20528;-52
2020/12/21 03:31:30;;;;;;;23.30;13.73;;;3.00;99.90;;;;;;5068371;28;20491;-52
2020/12/21 03:33:57;;;;;;;25.07;14.63;;;2.90;99.90;;;;;;5067516;28;20467;-51
2020/12/21 03:36:23;;;;;;;20.27;13.00;;;2.90;99.90;;;;;;5069582;28;20447;-52
2020/12/21 03:38:50;;;;;;;24.57;13.67;;;2.90;99.90;;;;;;5067334;28;20484;-52
2020/12/21 03:41:16;;;;;;;23.60;14.03;;;3.00;99.90;;;;;;5068965;28;20454;-52
2020/12/21 03:43:43;;;;;;;22.67;13.43;;;3.00;99.90;;;;;;5069771;28;20482;-53
2020/12/21 03:46:10;;;;;;;22.07;13.63;;;3.00;99.90;;;;;;5068678;28;20466;-52
2020/12/21 03:48:37;;;;;;;22.20;12.40;;;3.10;99.90;;;;;;5069062;28;20544;-52
2020/12/21 03:51:04;;;;;;;23.63;13.27;;;3.10;99.90;;;;;;5068818;28;20467;-52
2020/12/21 03:53:31;;;;;;;20.40;13.30;;;3.10;99.90;;;;;;5067636;28;20600;-53
2020/12/21 03:55:57;;;;;;;23.27;12.20;;;3.10;99.90;;;;;;5072386;28;20475;-52
2020/12/21 03:58:24;;;;;;;20.37;12.73;;;3.20;99.90;;;;;;5073263;28;20494;-52
2020/12/21 04:00:51;;;;;;;22.57;12.43;;;3.10;99.90;;;;;;5071680;28;20496;-52
2020/12/21 04:03:18;;;;;;;21.73;11.90;;;3.00;99.90;;;;;;5071775;28;20475;-51
2020/12/21 04:05:45;;;;;;;22.87;12.50;;;2.90;99.90;;;;;;5073038;28;20446;-52
2020/12/21 04:08:11;;;;;;;22.97;12.03;;;2.80;99.90;;;;;;5060136;28;20996;-52
2020/12/21 04:10:39;;;;;;;22.97;12.70;;;2.80;99.90;;;;;;5053425;28;20475;-52
2020/12/21 04:13:06;;;;;;;25.87;13.23;;;2.80;99.90;;;;;;5072760;28;20576;-51
2020/12/21 04:15:32;;;;;;;20.93;13.03;;;2.80;99.90;;;;;;5072818;28;20451;-52
2020/12/21 04:17:59;;;;;;;21.53;12.47;;;2.80;99.90;;;;;;5072919;28;20473;-51
2020/12/21 04:20:27;;;;;;;19.80;12.07;;;2.90;99.90;;;;;;5073164;28;20513;-51
2020/12/21 04:22:53;;;;;;;22.67;12.50;;;2.70;99.90;;;;;;5072445;28;20450;-51
2020/12/21 04:25:20;;;;;;;24.40;13.43;;;2.60;99.90;;;;;;5073062;28;20442;-51
2020/12/21 04:27:46;;;;;;;45.83;18.73;;;2.60;99.90;;;;;;5072885;28;20497;-51
2020/12/21 04:30:13;;;;;;;34.43;17.23;;;2.60;99.90;;;;;;5061698;28;20459;-51
2020/12/21 04:32:40;;;;;;;26.87;14.00;;;2.50;99.90;;;;;;5056632;28;20499;-51
2020/12/21 04:35:06;;;;;;;25.27;14.23;;;2.50;99.90;;;;;;5072467;28;20451;-51
2020/12/21 04:37:34;;;;;;;22.57;13.40;;;2.50;99.90;;;;;;5072827;28;20469;-51
2020/12/21 04:40:01;;;;;;;21.03;12.73;;;2.50;99.90;;;;;;5072493;28;20458;-52
2020/12/21 04:42:27;;;;;;;22.83;13.10;;;2.60;99.90;;;;;;5072897;28;20520;-51
2020/12/21 04:44:54;;;;;;;19.60;11.77;;;2.50;99.90;;;;;;5072366;28;20482;-51
2020/12/21 04:47:20;;;;;;;17.43;10.97;;;2.50;99.90;;;;;;5072649;28;20500;-51
2020/12/21 04:49:48;;;;;;;21.57;11.77;;;2.60;99.90;;;;;;5059758;28;20871;-51
2020/12/21 04:52:15;;;;;;;22.30;13.00;;;2.70;99.90;;;;;;5052811;28;20481;-51
2020/12/21 04:54:42;;;;;;;17.70;11.70;;;2.80;99.90;;;;;;5068276;28;20462;-54
2020/12/21 04:57:09;;;;;;;22.53;13.03;;;2.80;99.90;;;;;;5072584;28;20450;-52
2020/12/21 04:59:36;;;;;;;20.20;12.07;;;2.70;99.90;;;;;;5072096;28;20451;-51
2020/12/21 05:02:04;;;;;;;19.10;11.50;;;2.60;99.90;;;;;;5072536;28;20457;-51
2020/12/21 05:04:31;;;;;;;22.73;13.30;;;2.60;99.90;;;;;;5071969;28;20478;-52
2020/12/21 05:06:57;;;;;;;23.57;13.50;;;2.40;99.90;;;;;;5072562;28;20541;-51
2020/12/21 05:09:25;;;;;;;23.77;12.73;;;2.20;99.90;;;;;;5071667;28;20474;-51
2020/12/21 05:11:58;;;;;;;22.10;12.30;;;2.20;99.90;;;;;;5072202;28;20975;-52
2020/12/21 05:14:35;;;;;;;20.50;12.47;;;2.30;99.90;;;;;;5071988;28;20482;-52
2020/12/21 05:17:11;;;;;;;21.60;12.53;;;2.30;99.90;;;;;;5070939;28;20947;-51
2020/12/21 05:19:38;;;;;;;22.77;14.20;;;2.40;99.90;;;;;;5070252;28;20456;-51
2020/12/21 05:22:10;;;;;;;28.40;14.53;;;2.40;99.90;;;;;;5072200;28;20542;-51
2020/12/21 05:24:36;;;;;;;24.43;14.80;;;2.20;99.90;;;;;;5071820;28;20479;-51
2020/12/21 05:27:13;;;;;;;28.13;15.77;;;2.20;99.90;;;;;;5071813;28;20940;-51
2020/12/21 05:29:39;;;;;;;25.10;15.23;;;2.10;99.90;;;;;;5071989;28;20449;-52
2020/12/21 05:32:06;;;;;;;26.77;14.17;;;2.00;99.90;;;;;;5070530;28;20944;-51
2020/12/21 05:34:32;;;;;;;26.37;13.90;;;2.10;99.90;;;;;;5067107;28;20450;-51
2020/12/21 05:37:10;;;;;;;27.40;13.80;;;2.30;99.90;;;;;;5071849;28;20454;-51
2020/12/21 05:39:48;;;;;;;24.30;13.40;;;2.30;99.90;;;;;;5071648;28;20439;-51
2020/12/21 05:42:15;;;;;;;26.57;14.37;;;2.40;99.90;;;;;;5069979;28;20449;-51
2020/12/21 05:44:54;;;;;;;26.57;13.47;;;2.40;99.90;;;;;;5062898;28;20992;-51
2020/12/21 05:47:22;;;;;;;28.87;13.50;;;2.30;99.90;;;;;;5058337;28;20446;-51
2020/12/21 05:49:53;;;;;;;27.13;13.53;;;2.20;99.90;;;;;;5070583;28;20451;-51
2020/12/21 05:52:31;;;;;;;27.20;13.27;;;2.40;99.90;;;;;;5071465;28;20447;-56
2020/12/21 05:55:02;;;;;;;27.60;14.17;;;2.40;99.90;;;;;;5071369;28;20450;-51
2020/12/21 05:57:31;;;;;;;30.40;16.07;;;2.10;99.90;;;;;;5070937;28;20538;-51
2020/12/21 05:59:59;;;;;;;27.40;16.20;;;1.90;99.90;;;;;;5069096;28;20530;-51
2020/12/21 06:02:26;;;;;;;25.33;13.30;;;1.90;99.90;;;;;;5071204;28;20451;-51
2020/12/21 06:05:00;;;;;;;27.80;14.73;;;1.90;99.90;;;;;;5070640;28;20486;-51
2020/12/21 06:07:30;;;;;;;23.07;13.30;;;1.90;99.90;;;;;;5071224;28;20536;-51
2020/12/21 06:09:59;;;;;;;26.67;13.70;;;2.00;99.90;;;;;;5072361;28;20522;-51
2020/12/21 06:12:28;;;;;;;27.07;13.80;;;2.30;99.90;;;;;;5074625;28;20472;-51
2020/12/21 06:15:01;;;;;;;30.03;14.17;;;2.20;99.90;;;;;;5070505;28;20525;-51
2020/12/21 06:17:29;;;;;;;23.43;13.60;;;2.10;99.90;;;;;;5071083;28;20450;-51
2020/12/21 06:20:06;;;;;;;26.83;14.73;;;2.00;99.90;;;;;;5071708;28;20453;-51
2020/12/21 06:22:33;;;;;;;30.60;14.20;;;2.00;99.90;;;;;;5086034;28;20582;-51
2020/12/21 06:24:59;;;;;;;27.50;14.80;;;1.90;99.90;;;;;;5091217;28;20485;-51
2020/12/21 06:27:36;;;;;;;25.00;13.10;;;1.80;99.90;;;;;;5072136;28;20469;-51
2020/12/21 06:30:05;;;;;;;23.33;13.57;;;1.90;99.90;;;;;;5070505;28;20450;-51
2020/12/21 06:32:33;;;;;;;22.70;12.60;;;2.00;99.90;;;;;;5070876;28;20480;-51
2020/12/21 06:35:00;;;;;;;20.73;11.67;;;1.90;99.90;;;;;;5071001;28;20450;-51
2020/12/21 06:37:27;;;;;;;24.10;13.43;;;2.10;99.90;;;;;;5070533;28;20511;-51
2020/12/21 06:40:01;;;;;;;22.97;12.00;;;2.20;99.90;;;;;;5064476;28;20462;-51
2020/12/21 06:42:28;;;;;;;22.60;12.50;;;2.40;99.90;;;;;;5050775;28;20451;-51
2020/12/21 06:44:56;;;;;;;23.00;13.50;;;2.20;99.90;;;;;;5050971;28;20494;-51
2020/12/21 06:47:25;;;;;;;25.20;11.73;;;2.30;99.90;;;;;;5051060;28;20968;-52
2020/12/21 06:49:53;;;;;;;22.60;12.30;;;2.30;99.90;;;;;;5070505;28;20978;-51
2020/12/21 06:52:20;;;;;;;21.60;12.93;;;2.30;99.90;;;;;;5069846;28;20451;-51
2020/12/21 06:54:49;;;;;;;23.37;13.43;;;2.20;99.90;;;;;;5070676;28;20666;-51
2020/12/21 06:57:15;;;;;;;25.73;12.57;;;2.20;99.90;;;;;;5070702;28;20994;-51
2020/12/21 06:59:42;;;;;;;23.90;13.53;;;2.30;99.90;;;;;;5069976;28;20492;-51
2020/12/21 07:02:09;;;;;;;24.90;13.50;;;2.30;99.90;;;;;;5070680;28;20443;-51
2020/12/21 07:04:37;;;;;;;23.63;13.10;;;2.20;99.90;;;;;;5071684;28;20482;-51
2020/12/21 07:07:05;;;;;;;25.40;13.53;;;2.30;99.90;;;;;;5074870;28;20461;-51
2020/12/21 07:09:33;;;;;;;25.57;14.17;;;2.20;99.90;;;;;;5071083;28;20517;-51
2020/12/21 07:12:02;;;;;;;30.80;15.60;;;2.10;99.90;;;;;;5065933;28;20450;-51
2020/12/21 07:14:29;;;;;;;28.57;15.73;;;2.00;99.90;;;;;;5067649;28;20443;-51
2020/12/21 07:17:04;;;;;;;29.17;16.60;;;2.00;99.90;;;;;;5075238;28;20443;-51
2020/12/21 07:19:36;;;;;;;28.60;16.30;;;2.00;99.90;;;;;;5064890;28;20476;-51
2020/12/21 07:22:04;;;;;;;26.57;14.60;;;2.10;99.90;;;;;;5071838;28;20469;-51
2020/12/21 07:24:30;;;;;;;30.50;15.20;;;2.00;99.90;;;;;;5074324;28;20509;-51
2020/12/21 07:26:57;;;;;;;23.53;13.17;;;1.90;99.90;;;;;;5056777;28;20460;-51
2020/12/21 07:29:24;;;;;;;27.13;14.50;;;2.00;99.90;;;;;;5058602;28;20475;-52
2020/12/21 07:31:51;;;;;;;22.97;14.10;;;2.10;99.90;;;;;;5058222;28;20450;-51
2020/12/21 07:34:17;;;;;;;23.90;12.17;;;2.30;99.90;;;;;;5059050;28;20447;-51
2020/12/21 07:36:44;;;;;;;20.47;11.57;;;2.30;99.90;;;;;;5058888;28;20448;-52
2020/12/21 07:39:13;;;;;;;17.83;11.00;;;2.30;99.90;;;;;;5058975;28;20467;-51
2020/12/21 07:41:43;;;;;;;21.70;13.20;;;2.30;99.90;;;;;;5072513;28;20450;-51
2020/12/21 07:44:12;;;;;;;23.80;13.80;;;2.30;99.90;;;;;;5078119;28;20474;-51
2020/12/21 07:46:43;;;;;;;22.63;13.43;;;2.30;99.90;;;;;;5078606;28;20451;-51
2020/12/21 07:49:11;;;;;;;22.30;12.50;;;2.50;99.90;;;;;;5074011;28;20472;-51
2020/12/21 07:51:39;;;;;;;21.97;12.83;;;2.60;99.90;;;;;;5058959;28;20473;-51
2020/12/21 07:54:07;;;;;;;21.83;13.00;;;2.50;99.90;;;;;;5058591;28;20534;-51
2020/12/21 07:56:34;;;;;;;19.20;11.57;;;2.80;99.90;;;;;;5056626;28;20455;-51
2020/12/21 07:59:11;;;;;;;23.63;12.20;;;2.80;99.90;;;;;;5054710;28;20489;-51
2020/12/21 08:01:40;;;;;;;26.00;12.10;;;2.80;99.90;;;;;;5062588;28;20454;-51
2020/12/21 08:04:14;;;;;;;20.90;11.30;;;2.80;99.90;;;;;;5073800;28;20484;-51
2020/12/21 08:06:41;;;;;;;19.33;11.87;;;2.80;99.90;;;;;;5073747;28;20446;-51
2020/12/21 08:09:09;;;;;;;24.37;13.03;;;2.80;99.90;;;;;;5072856;28;20519;-51
2020/12/21 08:11:36;;;;;;;19.47;12.20;;;2.90;99.90;;;;;;5073470;28;20443;-51
2020/12/21 08:14:07;;;;;;;21.17;12.73;;;3.00;99.90;;;;;;5073618;28;20446;-51
2020/12/21 08:16:33;;;;;;;22.73;13.00;;;3.10;99.90;;;;;;5073746;28;20569;-51
2020/12/21 08:19:00;;;;;;;24.80;13.10;;;3.10;99.90;;;;;;5070941;28;21005;-51
2020/12/21 08:21:28;;;;;;;22.20;13.10;;;3.20;99.90;;;;;;5053640;28;20456;-51
2020/12/21 08:23:55;;;;;;;28.80;14.30;;;3.30;99.90;;;;;;5053336;28;20868;-51
2020/12/21 08:26:23;;;;;;;26.87;14.33;;;3.30;99.90;;;;;;5053206;28;20454;-51
2020/12/21 08:28:49;;;;;;;30.97;14.27;;;3.40;99.90;;;;;;5053070;28;20483;-51
2020/12/21 08:31:19;;;;;;;31.40;14.00;;;3.50;99.90;;;;;;5073149;28;20451;-51
2020/12/21 08:34:01;;;;;;;25.33;14.10;;;3.60;99.90;;;;;;5072624;28;20823;-51
2020/12/21 08:36:30;;;;;;;25.50;13.87;;;3.70;99.90;;;;;;5057575;28;20447;-51
2020/12/21 08:39:09;;;;;;;22.43;13.60;;;3.70;99.90;;;;;;5060556;28;20459;-52
2020/12/21 08:41:40;;;;;;;21.80;12.07;;;3.90;99.90;;;;;;5073074;28;20876;-51
2020/12/21 08:44:14;;;;;;;21.80;11.80;;;3.90;99.90;;;;;;5054760;28;20525;-52
2020/12/21 08:46:51;;;;;;;20.30;10.77;;;4.00;99.90;;;;;;5052907;28;20491;-51
2020/12/21 08:49:18;;;;;;;17.10;10.77;;;3.90;99.90;;;;;;5052842;28;20478;-51
2020/12/21 08:51:44;;;;;;;18.77;10.67;;;4.10;99.90;;;;;;5052873;28;20454;-52
2020/12/21 08:54:11;;;;;;;20.07;11.10;;;4.00;99.90;;;;;;5053107;28;21114;-51
2020/12/21 08:56:38;;;;;;;16.63;10.33;;;4.10;99.90;;;;;;5072714;28;20473;-51
2020/12/21 08:59:04;;;;;;;17.60;9.87;;;4.00;99.90;;;;;;5071160;28;21003;-51
2020/12/21 09:01:31;;;;;;;19.20;13.00;;;4.00;99.90;;;;;;5064606;28;20438;-51
2020/12/21 09:03:57;;;;;;;20.80;11.43;;;4.10;99.90;;;;;;5072247;28;20227;-51
2020/12/21 09:06:24;;;;;;;19.20;11.70;;;4.30;99.90;;;;;;5072100;28;20446;-51
2020/12/21 09:08:52;;;;;;;24.90;11.60;;;4.20;99.90;;;;;;5071819;28;20557;-51
2020/12/21 09:11:18;;;;;;;18.63;11.20;;;4.20;99.90;;;;;;5078261;28;20562;-52
2020/12/21 09:13:46;;;;;;;18.97;11.10;;;4.10;99.90;;;;;;5092115;28;20494;-51
2020/12/21 09:16:13;;;;;;;20.47;10.70;;;4.20;99.90;;;;;;5091661;28;20448;-51
2020/12/21 09:18:41;;;;;;;18.70;10.13;;;4.30;99.90;;;;;;5092096;28;20473;-51
2020/12/21 09:21:08;;;;;;;20.50;11.70;;;4.30;99.90;;;;;;5072879;28;20508;-51
2020/12/21 09:23:34;;;;;;;16.10;10.60;;;4.20;99.90;;;;;;5071557;28;20483;-51
2020/12/21 09:26:04;;;;;;;19.87;11.20;;;4.30;99.90;;;;;;5071368;28;20447;-51
2020/12/21 09:28:30;;;;;;;18.90;11.53;;;4.20;99.90;;;;;;5071272;28;20475;-52
2020/12/21 09:30:58;;;;;;;19.60;11.27;;;4.20;99.90;;;;;;5060462;28;20464;-52
2020/12/21 09:33:24;;;;;;;15.77;11.43;;;4.30;99.90;;;;;;5091914;28;20860;-51
2020/12/21 09:35:51;;;;;;;25.90;13.10;;;4.40;99.90;;;;;;5091649;28;20451;-52
2020/12/21 09:38:17;;;;;;;22.67;13.10;;;4.40;99.90;;;;;;5083744;28;20481;-51
2020/12/21 09:40:44;;;;;;;22.30;12.93;;;4.40;99.90;;;;;;5069705;28;20466;-52
2020/12/21 09:43:10;;;;;;;21.00;12.93;;;4.40;99.90;;;;;;5070998;28;20447;-52
2020/12/21 09:45:37;;;;;;;22.77;13.40;;;4.30;99.90;;;;;;5071394;28;20457;-52
2020/12/21 09:48:04;;;;;;;25.27;14.00;;;4.40;99.90;;;;;;5070620;28;20478;-51
2020/12/21 09:50:31;;;;;;;19.10;12.03;;;4.40;99.90;;;;;;5064189;28;20512;-52
2020/12/21 09:52:57;;;;;;;23.27;13.83;;;4.50;99.90;;;;;;5071156;28;20447;-52
2020/12/21 09:55:24;;;;;;;23.00;12.13;;;4.50;99.90;;;;;;5070577;28;20446;-52
2020/12/21 09:57:50;;;;;;;16.40;11.10;;;4.50;99.90;;;;;;5070009;28;20535;-52
2020/12/21 10:00:16;;;;;;;17.53;11.57;;;4.40;99.90;;;;;;5055022;28;21026;-52
2020/12/21 10:02:43;;;;;;;18.20;11.03;;;4.50;99.90;;;;;;5051192;28;20530;-52
2020/12/21 10:05:10;;;;;;;18.60;11.47;;;4.50;99.90;;;;;;5064519;28;20969;-52
2020/12/21 10:07:37;;;;;;;20.90;12.00;;;4.50;99.90;;;;;;5070426;28;20479;-54
2020/12/21 10:10:03;;;;;;;21.20;13.17;;;4.60;99.90;;;;;;5064894;28;20451;-54
2020/12/21 10:12:30;;;;;;;30.63;15.80;;;4.70;99.90;;;;;;5094298;22;21007;-50
2020/12/21 10:14:56;;;;;;;28.07;16.10;;;4.80;99.90;;;;;;5070552;28;20439;-50
2020/12/21 10:17:23;;;;;;;29.03;15.53;;;4.80;99.90;;;;;;5070253;28;21007;-50
2020/12/21 10:19:49;;;;;;;23.20;14.57;;;5.00;99.90;;;;;;5058658;28;20639;-50
2020/12/21 10:22:17;;;;;;;19.07;12.27;;;5.00;99.90;;;;;;5050616;28;20478;-51
2020/12/21 10:24:43;;;;;;;20.20;11.40;;;5.10;99.90;;;;;;5056033;28;20478;-51
2020/12/21 10:27:10;;;;;;;19.50;11.77;;;5.30;99.90;;;;;;5069457;28;20421;-50
2020/12/21 10:29:36;;;;;;;19.40;11.83;;;5.30;99.90;;;;;;5069741;28;20489;-50
2020/12/21 10:32:03;;;;;;;19.73;11.63;;;5.30;99.90;;;;;;5078382;28;20453;-50
2020/12/21 10:34:30;;;;;;;17.57;10.67;;;5.30;99.90;;;;;;5090726;28;20443;-51
2020/12/21 10:36:56;;;;;;;17.13;11.07;;;5.20;99.90;;;;;;5090625;28;20511;-51
2020/12/21 10:39:24;;;;;;;22.30;12.37;;;5.20;99.90;;;;;;5082429;28;20452;-50
2020/12/21 10:41:50;;;;;;;21.10;13.03;;;5.20;99.90;;;;;;5070069;28;20450;-50
2020/12/21 10:44:17;;;;;;;20.07;11.87;;;5.30;99.90;;;;;;5078873;28;20840;-50
2020/12/21 10:46:44;;;;;;;19.77;12.50;;;5.30;99.90;;;;;;5090471;28;20456;-50
2020/12/21 10:49:10;;;;;;;18.20;11.67;;;5.50;99.90;;;;;;5084408;28;20451;-51
2020/12/21 10:51:37;;;;;;;16.80;11.40;;;5.60;99.90;;;;;;5070487;28;20443;-50
2020/12/21 10:54:03;;;;;;;23.00;11.77;;;5.70;99.90;;;;;;5070453;28;20477;-50
2020/12/21 10:56:31;;;;;;;17.10;10.90;;;5.90;99.90;;;;;;5070272;28;20451;-50
2020/12/21 10:58:57;;;;;;;18.13;10.43;;;5.90;99.90;;;;;;5069715;28;20870;-51
2020/12/21 11:01:24;;;;;;;15.00;9.63;;;5.90;99.90;;;;;;5070125;28;20445;-51
2020/12/21 11:03:50;;;;;;;15.23;9.50;;;6.00;99.90;;;;;;5069983;28;20478;-50
2020/12/21 11:06:21;;;;;;;14.10;9.80;;;6.10;99.90;;;;;;5070076;28;20449;-51
2020/12/21 11:08:47;;;;;;;18.33;9.10;;;6.20;99.90;;;;;;5069466;28;20477;-50
2020/12/21 11:11:14;;;;;;;15.33;9.63;;;6.30;99.90;;;;;;5070126;28;20451;-51
2020/12/21 11:13:42;;;;;;;12.13;8.80;;;6.40;99.90;;;;;;5069794;28;20480;-50
2020/12/21 11:16:10;;;;;;;11.90;7.60;;;6.50;99.90;;;;;;5069864;28;20453;-51
2020/12/21 11:18:36;;;;;;;15.60;10.10;;;6.60;99.90;;;;;;5069914;28;20447;-51
2020/12/21 11:21:03;;;;;;;15.27;8.90;;;6.60;99.90;;;;;;5058220;28;20470;-51
2020/12/21 11:23:30;;;;;;;12.03;8.33;;;6.70;99.90;;;;;;5049814;28;20475;-51
2020/12/21 11:25:56;;;;;;;16.90;9.50;;;6.80;99.90;;;;;;5050008;28;20455;-50
2020/12/21 11:28:22;;;;;;;17.27;10.27;;;6.80;99.90;;;;;;5050257;28;20450;-50
2020/12/21 11:30:50;;;;;;;21.40;13.10;;;6.80;99.90;;;;;;5067714;28;20451;-51
2020/12/21 11:33:16;;;;;;;17.83;12.00;;;6.50;99.90;;;;;;5069860;28;20987;-50
2020/12/21 11:35:43;;;;;;;23.70;13.50;;;6.40;99.90;;;;;;5069563;28;20533;-51
2020/12/21 11:38:09;;;;;;;22.83;14.20;;;6.60;99.90;;;;;;5069351;28;20925;-50
2020/12/21 11:40:35;;;;;;;28.43;16.00;;;6.80;99.90;;;;;;5067683;28;20879;-51
2020/12/21 11:43:02;;;;;;;29.17;16.97;;;6.70;99.90;;;;;;5069525;28;20976;-50
2020/12/21 11:45:28;;;;;;;33.30;17.73;;;6.50;99.90;;;;;;5069221;28;20497;-50
2020/12/21 11:47:56;;;;;;;30.13;17.53;;;6.40;99.90;;;;;;5069601;28;20454;-51
2020/12/21 11:50:22;;;;;;;28.57;18.63;;;6.40;99.90;;;;;;5056408;28;20461;-51
2020/12/21 11:52:49;;;;;;;33.40;18.77;;;6.50;99.90;;;;;;5051873;28;20475;-50
2020/12/21 11:55:15;;;;;;;33.73;19.90;;;6.30;99.90;;;;;;5070754;28;20467;-51
2020/12/21 11:57:41;;;;;;;36.30;19.77;;;6.00;99.90;;;;;;5090031;28;20454;-50
2020/12/21 12:00:08;;;;;;;39.70;21.80;;;5.80;99.90;;;;;;5071081;28;20447;-50
2020/12/21 12:02:34;;;;;;;40.80;20.87;;;5.70;99.90;;;;;;5067520;28;20849;-50
2020/12/21 12:05:02;;;;;;;40.63;21.30;;;5.60;99.90;;;;;;5056962;28;21163;-50
2020/12/21 12:07:28;;;;;;;37.83;21.00;;;5.60;99.90;;;;;;5049639;28;20499;-50
2020/12/21 12:09:55;;;;;;;36.77;21.43;;;5.50;99.90;;;;;;5051213;28;20448;-50
2020/12/21 12:12:21;;;;;;;37.77;20.67;;;5.50;99.90;;;;;;5070194;28;20509;-50
2020/12/21 12:14:48;;;;;;;37.53;20.17;;;5.50;99.90;;;;;;5053855;28;20451;-50
2020/12/21 12:17:17;;;;;;;40.20;20.83;;;5.60;99.90;;;;;;5052821;28;20941;-50
2020/12/21 12:19:43;;;;;;;35.87;19.20;;;5.70;99.90;;;;;;5052689;28;20454;-50
2020/12/21 12:22:11;;;;;;;38.30;19.53;;;5.80;99.90;;;;;;5053137;28;20458;-50
2020/12/21 12:24:37;;;;;;;33.97;19.53;;;5.90;99.90;;;;;;5059739;28;20930;-50
2020/12/21 12:27:04;;;;;;;33.83;18.27;;;6.10;99.90;;;;;;5072807;28;20433;-51
2020/12/21 12:29:30;;;;;;;34.70;19.80;;;6.20;99.90;;;;;;5072575;28;20514;-50
2020/12/21 12:31:57;;;;;;;30.93;17.77;;;6.10;99.90;;;;;;5070887;28;20455;-51
2020/12/21 12:34:23;;;;;;;33.13;17.90;;;6.10;99.90;;;;;;5071521;28;20450;-51
2020/12/21 12:36:50;;;;;;;29.60;17.33;;;6.00;99.90;;;;;;5068425;28;20466;-52
2020/12/21 12:39:17;;;;;;;32.80;19.90;;;5.90;99.90;;;;;;5052585;28;20451;-51